Witamy     NOTAM     FEEDBACK     Informacje     Wydarzenia     O nas      FIR Warszawa      Kontrolerzy     Piloci     Lotniska     Pliki     Linki     Forum    

Aktualna pogoda

METAR

EPBY 270930Z 24014KT 200V270 CAVOK 22/11 Q1006
EPGD 270930Z 20010KT 160V220 9999 FEW040 17/13 Q1005
EPKK 270930Z 23005KT 170V320 9999 FEW033 24/15 Q1011
EPKT 270930Z 24012KT CAVOK 22/12 Q1011
EPLB 270930Z 21010KT 9999 FEW045 23/14 Q1011
EPLL 270930Z 23013G23KT 180V260 CAVOK 24/10 Q1009
EPMO 270930Z 25014KT CAVOK 23/10 Q1008
EPPO 270930Z 25010KT 9999 FEW047 23/11 Q1007
EPRZ 270930Z 22009KT 150V260 9999 FEW043 24/12 Q1012
EPSC 270930Z 25008KT 210V270 9999 FEW017 BKN020TCU 17/13 Q1006
EPSY 270930Z 22012KT 170V260 CAVOK 22/10 Q1007
EPWA 270930Z 22013KT CAVOK 24/11 Q1009 NOSIG
EPWR 270930Z 26005KT 220V340 CAVOK 23/11 Q1009
EPZG 270930Z 22011KT 190V260 9999 FEW048 23/11 Q1008

METAR - MIL

EPCE 270930Z 22009KT 190V260 9999 -SHRA SCT020TCU OVC026 15/13 Q1005 RMK 148
EPDA 270930Z 24006KT 210V330 9999 BKN029 OVC037 13/12 Q1006 RMK 129 093 8/5=
EPDE 270930Z 18010KT 9999 SCT050 25/13 Q1010 RMK 246 049 4/4=
EPIR 270930Z 20018KT CAVOK 22/10 Q1007 RMK 222 046 5/2=
EPKS 270930Z 22012KT 180V250 9999 FEW041 BKN200 22/11 Q1008 RMK 218 050 5/1=
EPLY 270930Z 24012KT CAVOK 23/10 Q1009 RMK 234 042 5/1=
EPMB 270930Z 23011KT 9999 BKN090 19/13 Q1005 RMK 192 067 7/7=
EPMI 270930Z 23008KT 9999 SCT029 BKN040 17/11 Q1007 RMK 170 068 7/4=
EPMM 270930Z 23012KT 170V270 CAVOK 24/13 Q1009 RMK 237 051 3/3=
EPOK 270930Z 20010KT 9999 FEW041 OVC085 17/13 Q1004 RMK 169 076 8/2=
EPPR 270930Z 22006KT 9999 BKN094 19/12 Q1005 RMK 194 062 7/7=
EPPW 270930Z 23016KT 9999 FEW045 BKN200 23/11 Q1008 RMK 230 046 5/2 =
EPRA 270930Z 19011KT CAVOK 24/13 Q1010
EPSN 270930Z 26011KT 9999 SCT014 BKN020 16/13 Q1006 RMK 158 084 7/4=
EPTM 270930Z 21008KT CAVOK 23/10 Q1010 RMK 234 042 3/2=

 

 
© 2001 Polish VACC
[logowanie]